createdAt,value
2022-08-04T00:00:40.518Z,84.30
2022-08-04T00:03:14.421Z,85.50
2022-08-04T00:05:48.571Z,83.40
2022-08-04T00:08:19.871Z,84.80
2022-08-04T00:10:50.244Z,85.00
2022-08-04T00:13:23.039Z,85.90
2022-08-04T00:15:52.486Z,85.70
2022-08-04T00:18:22.659Z,86.20
2022-08-04T00:20:51.554Z,84.10
2022-08-04T00:23:19.472Z,83.20
2022-08-04T00:25:47.221Z,82.50
2022-08-04T00:28:14.946Z,83.00
2022-08-04T00:30:44.035Z,82.50
2022-08-04T00:33:11.808Z,82.40
2022-08-04T00:35:39.660Z,82.10
2022-08-04T00:38:07.679Z,82.30
2022-08-04T00:40:39.510Z,82.30
2022-08-04T00:43:11.268Z,82.70
2022-08-04T00:46:10.970Z,83.80
2022-08-04T00:48:42.944Z,82.70
2022-08-04T00:51:16.026Z,82.80
2022-08-04T00:53:50.159Z,82.70
2022-08-04T00:56:34.940Z,82.90
2022-08-04T00:59:05.074Z,82.70
2022-08-04T01:01:45.447Z,82.40
2022-08-04T01:04:22.449Z,82.60
2022-08-04T01:07:00.136Z,82.30
2022-08-04T01:09:31.878Z,82.60
2022-08-04T01:12:08.988Z,82.50
2022-08-04T01:14:45.163Z,82.70
2022-08-04T01:17:22.286Z,83.00
2022-08-04T01:20:05.986Z,83.60
2022-08-04T01:22:49.077Z,83.20
2022-08-04T01:25:31.885Z,83.40
2022-08-04T01:28:16.125Z,82.80
2022-08-04T01:30:46.954Z,83.30
2022-08-04T01:33:15.510Z,82.90
2022-08-04T01:35:48.548Z,83.40
2022-08-04T01:38:21.359Z,83.30
2022-08-04T01:40:52.786Z,83.30
2022-08-04T01:43:21.141Z,83.70
2022-08-04T01:45:50.968Z,84.20
2022-08-04T01:48:19.305Z,84.10
2022-08-04T01:50:47.046Z,84.50
2022-08-04T01:53:20.998Z,84.10
2022-08-04T01:55:54.307Z,84.70
2022-08-04T01:58:24.902Z,84.30
2022-08-04T02:00:59.712Z,84.50
2022-08-04T02:04:18.089Z,84.80
2022-08-04T02:06:24.399Z,85.30
2022-08-04T02:08:54.995Z,85.70
2022-08-04T02:11:23.626Z,85.90
2022-08-04T02:13:55.163Z,86.80
2022-08-04T02:16:30.146Z,88.70
2022-08-04T02:19:02.500Z,87.90
2022-08-04T02:21:42.240Z,88.20
2022-08-04T02:24:14.967Z,86.50
2022-08-04T02:26:43.982Z,88.50
2022-08-04T02:29:14.620Z,88.00
2022-08-04T02:31:47.870Z,88.10
2022-08-04T02:34:18.355Z,87.00
2022-08-04T02:36:46.618Z,88.20
2022-08-04T02:39:16.769Z,87.40
2022-08-04T02:41:44.889Z,86.90
2022-08-04T02:44:12.651Z,87.60
2022-08-04T02:46:42.314Z,88.70
2022-08-04T02:49:11.620Z,89.00
2022-08-04T02:51:42.230Z,89.00
2022-08-04T02:54:10.322Z,89.00
2022-08-04T02:56:39.075Z,89.00
2022-08-04T02:59:07.912Z,89.20
2022-08-04T03:01:35.951Z,90.20
2022-08-04T03:04:24.334Z,87.90
2022-08-04T03:07:19.976Z,90.00
2022-08-04T03:10:04.796Z,88.30
2022-08-04T03:12:48.771Z,90.10
2022-08-04T03:15:43.496Z,89.60
2022-08-04T03:18:38.018Z,89.60
2022-08-04T03:21:23.738Z,90.20
2022-08-04T03:24:12.932Z,90.00
2022-08-04T03:26:55.143Z,90.50
2022-08-04T03:29:46.921Z,90.10
2022-08-04T03:32:28.524Z,91.00
2022-08-04T03:35:23.062Z,90.60
2022-08-04T03:38:05.893Z,89.70
2022-08-04T03:40:37.125Z,90.20
2022-08-04T03:43:56.960Z,90.80
2022-08-04T03:46:30.525Z,91.30
2022-08-04T03:49:11.106Z,91.30
2022-08-04T03:52:01.009Z,90.80
2022-08-04T03:54:47.235Z,90.80
2022-08-04T03:57:29.543Z,91.60
2022-08-04T04:00:09.926Z,91.20
2022-08-04T04:02:57.133Z,90.60
2022-08-04T04:05:58.695Z,90.60
2022-08-04T04:08:42.541Z,91.00
2022-08-04T04:11:24.339Z,91.20
2022-08-04T04:14:06.938Z,91.30
2022-08-04T04:16:44.888Z,91.80
2022-08-04T04:19:24.227Z,91.60
2022-08-04T04:22:16.471Z,91.60
2022-08-04T04:24:50.073Z,90.70
2022-08-04T04:27:23.689Z,91.70
2022-08-04T04:30:01.384Z,91.00
2022-08-04T04:32:40.291Z,91.10
2022-08-04T04:35:15.707Z,91.40
2022-08-04T04:37:51.948Z,91.80
2022-08-04T04:40:33.609Z,91.20
2022-08-04T04:43:12.526Z,91.40
2022-08-04T04:45:43.767Z,91.90
2022-08-04T04:48:17.467Z,92.10
2022-08-04T04:50:54.244Z,92.00
2022-08-04T04:53:25.358Z,92.20
2022-08-04T04:55:56.966Z,92.40
2022-08-04T04:58:25.014Z,92.20
2022-08-04T05:01:09.536Z,92.80
2022-08-04T05:03:55.164Z,92.60
2022-08-04T05:06:29.968Z,92.90
2022-08-04T05:09:12.389Z,92.80
2022-08-04T05:11:47.064Z,93.40
2022-08-04T05:14:36.357Z,93.40
2022-08-04T05:17:07.643Z,93.60
2022-08-04T05:19:44.761Z,93.70
2022-08-04T05:22:25.484Z,93.90
2022-08-04T05:24:55.263Z,93.70
2022-08-04T05:27:24.953Z,93.90
2022-08-04T05:29:53.957Z,93.60
2022-08-04T05:32:25.056Z,93.60
2022-08-04T05:34:55.245Z,93.20
2022-08-04T05:37:24.828Z,94.20
2022-08-04T05:39:59.306Z,94.00
2022-08-04T05:42:28.245Z,94.30
2022-08-04T05:44:56.454Z,94.40
2022-08-04T05:47:25.238Z,94.30
2022-08-04T05:49:55.608Z,93.70
2022-08-04T05:52:32.090Z,94.30
2022-08-04T05:55:00.336Z,94.30
2022-08-04T05:57:28.842Z,93.80
2022-08-04T05:59:58.162Z,93.90
2022-08-04T06:02:26.477Z,93.70
2022-08-04T06:04:54.776Z,93.80
2022-08-04T06:07:23.084Z,93.50
2022-08-04T06:09:52.243Z,93.70
2022-08-04T06:12:22.763Z,93.60
2022-08-04T06:14:52.953Z,94.00
2022-08-04T06:18:33.651Z,93.50
2022-08-04T06:20:20.366Z,93.60
2022-08-04T06:22:53.855Z,93.80
2022-08-04T06:25:24.179Z,94.20
2022-08-04T06:27:52.595Z,94.00
2022-08-04T06:30:20.921Z,93.70
2022-08-04T06:33:03.814Z,93.20
2022-08-04T06:35:33.876Z,92.90
2022-08-04T06:38:02.894Z,93.40
2022-08-04T06:40:34.065Z,92.90
2022-08-04T06:43:03.114Z,92.40
2022-08-04T06:45:32.071Z,92.40
2022-08-04T06:48:00.932Z,92.20
2022-08-04T06:51:29.623Z,91.80
2022-08-04T06:53:16.919Z,91.50
2022-08-04T06:55:46.623Z,90.40
2022-08-04T06:58:15.262Z,90.50
2022-08-04T07:00:44.251Z,90.70
2022-08-04T07:03:12.516Z,90.20
2022-08-04T07:05:41.267Z,90.20
2022-08-04T07:08:10.942Z,90.10
2022-08-04T07:10:39.046Z,90.20
2022-08-04T07:13:09.419Z,90.30
2022-08-04T07:15:37.839Z,90.60
2022-08-04T07:18:05.647Z,90.30
2022-08-04T07:20:36.238Z,89.60
2022-08-04T07:23:05.087Z,90.00
2022-08-04T07:25:58.566Z,90.40
2022-08-04T07:28:24.767Z,90.10
2022-08-04T07:30:53.554Z,90.50
2022-08-04T07:33:21.395Z,90.50
2022-08-04T07:36:10.758Z,88.90
2022-08-04T07:38:48.095Z,89.50
2022-08-04T07:41:36.645Z,88.10
2022-08-04T07:44:06.282Z,87.80
2022-08-04T07:46:34.024Z,87.10
2022-08-04T07:49:01.982Z,87.10
2022-08-04T07:51:30.588Z,88.80
2022-08-04T07:53:58.748Z,87.20
2022-08-04T07:56:27.118Z,86.50
2022-08-04T07:58:55.153Z,86.90
2022-08-04T08:01:24.505Z,88.20
2022-08-04T08:03:53.732Z,84.80
2022-08-04T08:06:30.735Z,87.90
2022-08-04T08:09:02.315Z,86.00
2022-08-04T08:12:36.161Z,84.30
2022-08-04T08:14:31.407Z,83.70
2022-08-04T08:17:02.395Z,84.90
2022-08-04T08:19:30.465Z,84.00
2022-08-04T08:22:00.494Z,83.40
2022-08-04T08:24:29.543Z,83.20
2022-08-04T08:26:57.764Z,85.10
2022-08-04T08:29:26.646Z,83.10
2022-08-04T08:31:57.279Z,81.30
2022-08-04T08:34:28.970Z,79.80
2022-08-04T08:37:00.730Z,79.40
2022-08-04T08:39:30.188Z,79.60
2022-08-04T08:42:18.395Z,79.60
2022-08-04T08:45:04.866Z,80.70
2022-08-04T08:47:58.504Z,78.70
2022-08-04T08:50:38.254Z,79.00
2022-08-04T08:53:15.195Z,78.50
2022-08-04T08:55:47.378Z,78.90
2022-08-04T08:58:24.221Z,79.70
2022-08-04T09:00:54.628Z,80.50
2022-08-04T09:03:40.079Z,79.70
2022-08-04T09:06:18.646Z,79.40
2022-08-04T09:09:01.803Z,77.80
2022-08-04T09:11:33.766Z,78.20
2022-08-04T09:14:02.450Z,78.40
2022-08-04T09:16:36.288Z,76.90
2022-08-04T09:19:07.261Z,77.30
2022-08-04T09:21:40.474Z,78.60
2022-08-04T09:24:36.819Z,76.30
2022-08-04T09:27:00.983Z,75.40
2022-08-04T09:29:35.226Z,75.00
2022-08-04T09:32:09.147Z,74.90
2022-08-04T09:34:41.589Z,74.50
2022-08-04T09:37:15.026Z,74.50
2022-08-04T09:39:52.098Z,74.60
2022-08-04T09:42:26.098Z,74.60
2022-08-04T09:45:06.655Z,73.00
2022-08-04T09:47:39.361Z,72.60
2022-08-04T09:50:23.245Z,72.70
2022-08-04T09:52:57.392Z,72.20
2022-08-04T09:55:32.370Z,72.70
2022-08-04T09:58:04.924Z,72.70
2022-08-04T10:00:40.832Z,70.50
2022-08-04T10:03:14.726Z,71.90
2022-08-04T10:05:49.752Z,70.00
2022-08-04T10:08:30.395Z,70.20
2022-08-04T10:11:04.766Z,69.90
2022-08-04T10:13:39.342Z,69.20
2022-08-04T10:16:19.719Z,68.40
2022-08-04T10:18:51.833Z,68.20
2022-08-04T10:21:24.201Z,67.70
2022-08-04T10:24:08.432Z,69.30
2022-08-04T10:26:40.232Z,68.80
2022-08-04T10:29:10.816Z,68.40
2022-08-04T10:31:43.680Z,67.20
2022-08-04T10:34:13.917Z,67.00
2022-08-04T10:36:45.494Z,66.90
2022-08-04T10:39:42.776Z,67.10
2022-08-04T10:42:08.016Z,66.60
2022-08-04T10:44:41.812Z,66.20
2022-08-04T10:47:15.023Z,65.60
2022-08-04T10:49:45.723Z,64.30
2022-08-04T10:52:19.044Z,63.70
2022-08-04T10:54:52.563Z,64.30
2022-08-04T10:57:22.058Z,63.80
2022-08-04T10:59:53.559Z,63.70
2022-08-04T11:02:35.054Z,64.50
2022-08-04T11:05:11.931Z,64.40
2022-08-04T11:07:42.173Z,65.10
2022-08-04T11:10:11.434Z,64.20
2022-08-04T11:12:39.458Z,62.70
2022-08-04T11:15:10.211Z,62.70
2022-08-04T11:17:41.654Z,62.00
2022-08-04T11:20:34.197Z,62.90
2022-08-04T11:23:05.000Z,62.20
2022-08-04T11:25:37.677Z,61.40
2022-08-04T11:28:10.309Z,61.30
2022-08-04T11:30:41.703Z,61.50
2022-08-04T11:33:14.406Z,61.20
2022-08-04T11:35:45.552Z,61.30
2022-08-04T11:38:16.238Z,59.90
2022-08-04T11:40:55.725Z,61.10
2022-08-04T11:43:56.439Z,60.10
2022-08-04T11:46:25.660Z,59.10
2022-08-04T11:48:57.316Z,59.40
2022-08-04T11:51:27.790Z,59.60
2022-08-04T11:53:56.694Z,58.00
2022-08-04T11:56:35.933Z,58.60
2022-08-04T11:59:07.504Z,58.20
2022-08-04T12:01:36.815Z,56.90
2022-08-04T12:04:06.563Z,58.30
2022-08-04T12:06:56.740Z,55.60
2022-08-04T12:09:30.652Z,55.70
2022-08-04T12:12:04.026Z,56.50
2022-08-04T12:14:39.527Z,56.30
2022-08-04T12:17:08.534Z,55.90
2022-08-04T12:20:03.491Z,55.10
2022-08-04T12:22:31.358Z,55.60
2022-08-04T12:25:02.223Z,55.00
2022-08-04T12:27:33.886Z,53.90
2022-08-04T12:30:59.776Z,54.70
2022-08-04T12:32:54.581Z,54.60
2022-08-04T12:35:26.388Z,55.20
2022-08-04T12:37:59.450Z,55.70
2022-08-04T12:40:31.186Z,54.80
2022-08-04T12:43:03.878Z,55.50
2022-08-04T12:45:32.068Z,56.00
2022-08-04T12:48:00.742Z,56.00
2022-08-04T12:50:28.976Z,56.40
2022-08-04T12:53:02.701Z,55.70
2022-08-04T12:55:33.270Z,56.20
2022-08-04T12:58:02.616Z,55.00
2022-08-04T13:00:38.263Z,53.30
2022-08-04T13:03:10.872Z,53.20
2022-08-04T13:05:40.000Z,52.80
2022-08-04T13:08:08.705Z,54.00
2022-08-04T13:10:38.523Z,54.60
2022-08-04T13:13:12.596Z,54.70
2022-08-04T13:15:47.716Z,54.60
2022-08-04T13:18:29.626Z,53.80
2022-08-04T13:21:20.346Z,53.70
2022-08-04T13:24:09.534Z,54.40
2022-08-04T13:26:44.848Z,54.10
2022-08-04T13:30:00.507Z,54.90
2022-08-04T13:32:16.250Z,54.60
2022-08-04T13:34:48.881Z,54.40
2022-08-04T13:37:20.897Z,54.60
2022-08-04T13:39:55.666Z,54.40
2022-08-04T13:42:25.063Z,55.90
2022-08-04T13:44:56.874Z,54.30
2022-08-04T13:47:28.042Z,54.80
2022-08-04T13:50:12.143Z,54.00
2022-08-04T13:52:40.747Z,53.60
2022-08-04T13:55:08.829Z,52.70
2022-08-04T13:57:37.597Z,54.30
2022-08-04T14:00:08.909Z,54.20
2022-08-04T14:02:40.179Z,53.90
2022-08-04T14:05:18.337Z,54.30
2022-08-04T14:07:47.851Z,53.80
2022-08-04T14:10:16.122Z,53.60
2022-08-04T14:12:47.003Z,54.10
2022-08-04T14:16:01.873Z,54.00
2022-08-04T14:18:21.824Z,52.80
2022-08-04T14:20:59.615Z,52.60
2022-08-04T14:23:31.801Z,53.50
2022-08-04T14:26:01.668Z,52.10
2022-08-04T14:29:00.027Z,52.80
2022-08-04T14:31:19.566Z,52.30
2022-08-04T14:34:02.281Z,52.20
2022-08-04T14:36:41.820Z,52.10
2022-08-04T14:39:37.387Z,51.30
2022-08-04T14:42:05.410Z,51.80
2022-08-04T14:44:33.158Z,51.50
2022-08-04T14:47:02.220Z,51.90
2022-08-04T14:49:29.959Z,52.50
2022-08-04T14:51:59.031Z,52.00
2022-08-04T14:54:28.507Z,52.10
2022-08-04T14:56:58.360Z,53.40
2022-08-04T14:59:26.229Z,52.30
2022-08-04T15:02:00.549Z,52.80
2022-08-04T15:04:31.231Z,52.10
2022-08-04T15:06:59.312Z,52.80
2022-08-04T15:09:27.237Z,52.20
2022-08-04T15:11:55.119Z,52.20
2022-08-04T15:14:36.411Z,51.80
2022-08-04T15:17:12.119Z,51.80
2022-08-04T15:19:56.385Z,52.30
2022-08-04T15:22:24.301Z,51.80
2022-08-04T15:24:55.048Z,51.80
2022-08-04T15:27:25.056Z,52.30
2022-08-04T15:30:00.856Z,52.10
2022-08-04T15:32:30.670Z,52.60
2022-08-04T15:35:04.323Z,52.30
2022-08-04T15:37:37.811Z,52.90
2022-08-04T15:40:09.956Z,52.50
2022-08-04T15:42:42.050Z,53.20
2022-08-04T15:45:19.899Z,53.50
2022-08-04T15:48:06.494Z,53.70
2022-08-04T15:50:35.579Z,53.10
2022-08-04T15:53:10.264Z,52.80
2022-08-04T15:55:40.646Z,53.40
2022-08-04T15:58:09.359Z,53.40
2022-08-04T16:00:53.997Z,53.90
2022-08-04T16:03:53.166Z,55.00
2022-08-04T16:06:45.129Z,54.10
2022-08-04T16:09:22.099Z,53.90
2022-08-04T16:11:49.834Z,53.90
2022-08-04T16:14:17.690Z,54.90
2022-08-04T16:16:49.867Z,54.00
2022-08-04T16:19:26.889Z,54.60
2022-08-04T16:22:05.274Z,54.70
2022-08-04T16:24:36.518Z,54.70
2022-08-04T16:27:04.850Z,54.90
2022-08-04T16:29:34.503Z,54.40
2022-08-04T16:32:23.436Z,53.90
2022-08-04T16:34:56.946Z,54.40
2022-08-04T16:37:30.937Z,54.20
2022-08-04T16:40:17.771Z,54.90
2022-08-04T16:42:46.089Z,55.30
2022-08-04T16:45:14.119Z,55.20
2022-08-04T16:48:00.657Z,55.50
2022-08-04T16:50:29.636Z,54.80
2022-08-04T16:52:58.732Z,54.40
2022-08-04T16:55:27.723Z,54.70
2022-08-04T16:57:56.177Z,54.50
2022-08-04T17:00:31.572Z,55.50
2022-08-04T17:02:59.313Z,55.60
2022-08-04T17:05:38.348Z,55.80
2022-08-04T17:10:57.172Z,56.00
2022-08-04T17:14:03.635Z,56.00
2022-08-04T17:16:18.779Z,56.70
2022-08-04T17:18:47.424Z,56.30
2022-08-04T17:21:16.647Z,56.50
2022-08-04T17:24:12.947Z,56.60
2022-08-04T17:26:39.507Z,57.40
2022-08-04T17:29:08.997Z,57.80
2022-08-04T17:31:38.389Z,57.70
2022-08-04T17:34:15.755Z,57.70
2022-08-04T17:36:44.075Z,57.60
2022-08-04T17:39:16.938Z,58.30
2022-08-04T17:41:48.691Z,58.70
2022-08-04T17:44:17.619Z,58.70
2022-08-04T17:46:48.085Z,58.90
2022-08-04T17:49:22.619Z,58.90
2022-08-04T17:52:06.564Z,58.90
2022-08-04T17:54:40.521Z,59.00
2022-08-04T17:57:15.634Z,59.20
2022-08-04T17:59:55.884Z,59.40
2022-08-04T18:02:32.227Z,59.20
2022-08-04T18:05:07.067Z,59.30
2022-08-04T18:08:46.052Z,59.30
2022-08-04T18:10:52.624Z,59.40
2022-08-04T18:13:25.094Z,59.80
2022-08-04T18:16:02.472Z,60.30
2022-08-04T18:18:30.610Z,60.30
2022-08-04T18:21:02.684Z,60.80
2022-08-04T18:23:32.600Z,60.60
2022-08-04T18:26:03.659Z,60.70
2022-08-04T18:28:33.584Z,61.10
2022-08-04T18:31:01.952Z,61.00
2022-08-04T18:33:40.743Z,61.00
2022-08-04T18:36:33.471Z,61.20
2022-08-04T18:39:11.982Z,61.30
2022-08-04T18:42:00.941Z,61.60
2022-08-04T18:44:31.221Z,61.90
2022-08-04T18:47:19.411Z,62.00
2022-08-04T18:50:59.578Z,62.20
2022-08-04T18:52:35.303Z,62.40
2022-08-04T18:55:10.196Z,62.70
2022-08-04T18:57:59.388Z,62.40
2022-08-04T19:00:28.959Z,62.70
2022-08-04T19:02:57.343Z,62.70
2022-08-04T19:05:25.115Z,62.70
2022-08-04T19:08:32.531Z,62.90
2022-08-04T19:10:54.399Z,62.80
2022-08-04T19:13:34.617Z,63.00
2022-08-04T19:16:03.000Z,63.10
2022-08-04T19:18:32.316Z,63.20
2022-08-04T19:21:05.315Z,63.20
2022-08-04T19:24:11.514Z,63.20
2022-08-04T19:26:28.045Z,63.30
2022-08-04T19:28:57.734Z,63.50
2022-08-04T19:31:39.997Z,63.40
2022-08-04T19:34:08.375Z,63.60
2022-08-04T19:36:36.790Z,64.00
2022-08-04T19:42:04.331Z,65.00
2022-08-04T19:44:34.047Z,65.80
2022-08-04T19:47:02.456Z,66.40
2022-08-04T19:50:05.431Z,67.10
2022-08-04T19:52:38.149Z,67.80
2022-08-04T19:55:09.916Z,68.40
2022-08-04T19:57:43.925Z,69.00
2022-08-04T20:00:17.699Z,69.30
2022-08-04T20:03:02.683Z,69.70
2022-08-04T20:05:54.294Z,69.90
2022-08-04T20:08:18.578Z,70.80
2022-08-04T20:10:47.002Z,70.40
2022-08-04T20:13:19.422Z,70.60
2022-08-04T20:15:55.431Z,70.80
2022-08-04T20:18:36.061Z,70.80
2022-08-04T20:21:11.336Z,71.00
2022-08-04T20:23:50.059Z,71.00
2022-08-04T20:26:18.013Z,71.20
2022-08-04T20:28:46.224Z,71.20
2022-08-04T20:31:21.615Z,71.10
2022-08-04T20:33:53.713Z,71.60
2022-08-04T20:36:23.183Z,71.90
2022-08-04T20:38:52.728Z,72.40
2022-08-04T20:41:21.108Z,72.90
2022-08-04T20:43:49.654Z,72.60
2022-08-04T20:46:29.354Z,72.80
2022-08-04T20:48:59.046Z,72.90
2022-08-04T20:51:32.161Z,73.00
2022-08-04T20:54:01.907Z,73.40
2022-08-04T20:56:30.982Z,73.90
2022-08-04T20:58:59.541Z,74.10
2022-08-04T21:01:29.808Z,74.50
2022-08-04T21:04:28.055Z,74.70
2022-08-04T21:06:57.287Z,74.80
2022-08-04T21:09:36.925Z,75.10
2022-08-04T21:12:06.994Z,75.20
2022-08-04T21:14:34.900Z,75.30
2022-08-04T21:17:04.131Z,75.00
2022-08-04T21:19:37.911Z,75.30
2022-08-04T21:22:10.443Z,75.40
2022-08-04T21:24:40.228Z,75.60
2022-08-04T21:27:16.350Z,76.00
2022-08-04T21:29:45.294Z,76.20
2022-08-04T21:32:13.896Z,76.30
2022-08-04T21:34:43.034Z,76.60
2022-08-04T21:37:12.682Z,76.70
2022-08-04T21:39:50.308Z,77.00
2022-08-04T21:42:42.192Z,77.80
2022-08-04T21:45:11.187Z,78.00
2022-08-04T21:47:49.122Z,78.00
2022-08-04T21:50:19.952Z,78.30
2022-08-04T21:52:48.400Z,78.50
2022-08-04T21:55:16.878Z,78.80
2022-08-04T21:57:46.737Z,79.20
2022-08-04T22:00:19.538Z,79.30
2022-08-04T22:02:53.268Z,79.90
2022-08-04T22:05:22.920Z,80.20
2022-08-04T22:07:51.664Z,80.80
2022-08-04T22:10:32.182Z,81.20
2022-08-04T22:13:07.054Z,81.40
2022-08-04T22:16:03.651Z,81.70
2022-08-04T22:18:24.448Z,82.20
2022-08-04T22:20:56.339Z,82.60
2022-08-04T22:23:25.473Z,83.10
2022-08-04T22:25:53.685Z,83.40
2022-08-04T22:28:27.098Z,83.70
2022-08-04T22:30:56.576Z,83.80
2022-08-04T22:33:53.847Z,84.20
2022-08-04T22:36:14.480Z,84.30
2022-08-04T22:38:50.368Z,84.50
2022-08-04T22:41:21.166Z,84.90
2022-08-04T22:43:54.865Z,85.00
2022-08-04T22:46:23.955Z,85.20
2022-08-04T22:48:52.769Z,85.50
2022-08-04T22:51:22.544Z,85.80
2022-08-04T22:53:54.672Z,86.20
2022-08-04T22:56:37.760Z,86.60
2022-08-04T22:59:06.616Z,86.90
2022-08-04T23:02:00.012Z,87.40
2022-08-04T23:04:25.681Z,87.70
2022-08-04T23:06:55.554Z,88.00
2022-08-04T23:09:48.916Z,88.30
2022-08-04T23:12:27.270Z,88.70
2022-08-04T23:14:56.380Z,89.00
2022-08-04T23:17:25.264Z,89.40
2022-08-04T23:19:58.208Z,89.80
2022-08-04T23:22:41.343Z,90.10
2022-08-04T23:25:16.034Z,90.30
2022-08-04T23:27:48.245Z,90.60
2022-08-04T23:30:20.879Z,91.00
2022-08-04T23:32:49.856Z,91.30
2022-08-04T23:35:19.087Z,91.70
2022-08-04T23:37:57.904Z,92.50
2022-08-04T23:40:33.415Z,92.70
2022-08-04T23:43:17.083Z,93.40
2022-08-04T23:46:03.613Z,93.80
2022-08-04T23:48:34.207Z,94.50
2022-08-04T23:51:03.831Z,95.10
2022-08-04T23:54:01.841Z,95.70
2022-08-04T23:56:31.958Z,96.40
2022-08-04T23:59:00.303Z,97.10
